Terminal Aerodrome Forecast
Issued by NWS Twin Cities, MN

Home | Current Version | Previous Version | Graphics & Text | Print | Product List | Glossary On
Versions: 1 2 3 4 5 6 7 8 9 10 11 12 13 14 15 16 17 18 19 20 21 22 23 24 25 26
698
FTUS43 KMPX 230258 AAA
TAFMSP
TAF AMD
KMSP 230258Z 2303/2406 17010KT P6SM SCT120 WS020/18040KT
     FM230800 16012KT P6SM SCT050 BKN090 WS020/18045KT
     FM231400 17012G20KT 6SM SHRA SCT025 OVC035
      TEMPO 2314/2318 3SM TSRA BKN025CB
     FM231800 19014G20KT P6SM VCSH SCT025 OVC050
      TEMPO 2320/2324 3SM TSRA BKN025CB
     FM240000 18008KT 6SM -SHRA BKN060=

USA.gov is the U.S. government's official web portal to all federal, state and local government web resources and services.